createdAt,value
2022-10-18T00:01:30.990Z,19.17
2022-10-18T00:04:01.472Z,19.12
2022-10-18T00:06:31.114Z,19.25
2022-10-18T00:09:00.105Z,19.22
2022-10-18T00:11:29.271Z,19.31
2022-10-18T00:13:58.357Z,19.32
2022-10-18T00:16:27.591Z,19.52
2022-10-18T00:18:56.909Z,19.48
2022-10-18T00:21:27.545Z,19.53
2022-10-18T00:23:56.545Z,19.26
2022-10-18T00:26:26.408Z,19.32
2022-10-18T00:28:56.381Z,19.20
2022-10-18T00:31:27.181Z,19.30
2022-10-18T00:33:56.554Z,19.18
2022-10-18T00:36:27.502Z,19.28
2022-10-18T00:38:56.587Z,19.21
2022-10-18T00:41:26.660Z,19.25
2022-10-18T00:43:56.537Z,19.28
2022-10-18T00:46:26.679Z,19.43
2022-10-18T00:48:55.942Z,19.51
2022-10-18T00:51:25.242Z,19.50
2022-10-18T00:53:55.638Z,19.48
2022-10-18T00:56:24.954Z,19.25
2022-10-18T00:58:54.086Z,19.42
2022-10-18T01:01:25.970Z,19.43
2022-10-18T01:03:57.776Z,19.26
2022-10-18T01:06:28.419Z,19.48
2022-10-18T01:09:02.377Z,19.39
2022-10-18T01:11:35.288Z,19.44
2022-10-18T01:14:07.364Z,19.24
2022-10-18T01:16:37.522Z,19.46
2022-10-18T01:19:10.215Z,19.46
2022-10-18T01:21:41.921Z,19.43
2022-10-18T01:24:23.636Z,19.43
2022-10-18T01:27:01.586Z,19.41
2022-10-18T01:29:34.140Z,19.52
2022-10-18T01:32:05.227Z,19.30
2022-10-18T01:34:35.557Z,19.22
2022-10-18T01:37:06.283Z,19.40
2022-10-18T01:39:35.702Z,19.23
2022-10-18T01:42:05.718Z,19.35
2022-10-18T01:44:34.959Z,19.22
2022-10-18T01:47:05.697Z,19.21
2022-10-18T01:49:34.677Z,19.25
2022-10-18T01:52:04.039Z,19.22
2022-10-18T01:54:34.327Z,19.29
2022-10-18T01:57:04.804Z,19.43
2022-10-18T01:59:40.312Z,19.31
2022-10-18T02:02:32.759Z,19.39
2022-10-18T02:05:02.855Z,19.37
2022-10-18T02:07:33.562Z,19.40
2022-10-18T02:10:04.056Z,19.42
2022-10-18T02:12:33.761Z,19.45
2022-10-18T02:15:02.863Z,19.46
2022-10-18T02:17:33.663Z,19.34
2022-10-18T02:20:03.060Z,19.25
2022-10-18T02:22:33.050Z,19.50
2022-10-18T02:25:03.848Z,19.37
2022-10-18T02:27:33.028Z,19.40
2022-10-18T02:30:02.000Z,19.46
2022-10-18T02:32:34.230Z,19.22
2022-10-18T02:35:06.565Z,19.11
2022-10-18T02:37:36.678Z,19.25
2022-10-18T02:40:06.187Z,19.16
2022-10-18T02:42:36.095Z,19.09
2022-10-18T02:45:05.515Z,18.98
2022-10-18T02:47:36.164Z,18.93
2022-10-18T02:50:05.381Z,18.83
2022-10-18T02:52:34.730Z,18.88
2022-10-18T02:55:03.717Z,19.09
2022-10-18T02:57:33.283Z,19.11
2022-10-18T03:00:02.654Z,19.05
2022-10-18T03:02:31.935Z,18.65
2022-10-18T03:05:02.504Z,18.92
2022-10-18T03:07:32.004Z,18.54
2022-10-18T03:10:01.195Z,18.96
2022-10-18T03:12:30.471Z,19.06
2022-10-18T03:14:59.545Z,18.98
2022-10-18T03:17:28.884Z,18.66
2022-10-18T03:19:58.087Z,18.51
2022-10-18T03:25:03.145Z,18.91
2022-10-18T03:27:32.542Z,18.78
2022-10-18T03:30:01.817Z,18.85
2022-10-18T03:32:31.464Z,18.98
2022-10-18T03:35:00.690Z,18.97
2022-10-18T03:37:31.403Z,19.00
2022-10-18T03:40:00.523Z,18.97
2022-10-18T03:42:30.181Z,18.92
2022-10-18T03:44:59.597Z,18.67
2022-10-18T03:47:28.797Z,18.80
2022-10-18T03:49:57.834Z,18.97
2022-10-18T03:52:27.075Z,18.97
2022-10-18T03:54:57.583Z,18.97
2022-10-18T03:57:26.757Z,18.99
2022-10-18T03:59:55.754Z,18.78
2022-10-18T04:02:24.923Z,18.83
2022-10-18T04:04:53.915Z,18.85
2022-10-18T04:07:23.126Z,18.85
2022-10-18T04:09:52.049Z,18.86
2022-10-18T04:12:25.829Z,18.84
2022-10-18T04:14:57.561Z,18.86
2022-10-18T04:17:26.913Z,18.87
2022-10-18T04:19:55.906Z,18.86
2022-10-18T04:22:25.079Z,18.89
2022-10-18T04:24:54.428Z,18.87
2022-10-18T04:27:25.329Z,18.91
2022-10-18T04:29:54.304Z,18.97
2022-10-18T04:32:23.551Z,18.89
2022-10-18T04:34:52.540Z,18.84
2022-10-18T04:37:21.897Z,18.94
2022-10-18T04:39:53.520Z,18.86
2022-10-18T04:42:24.611Z,18.88
2022-10-18T04:44:53.684Z,18.86
2022-10-18T04:47:22.934Z,18.77
2022-10-18T04:49:51.969Z,18.73
2022-10-18T04:52:21.239Z,18.72
2022-10-18T04:54:50.255Z,18.71
2022-10-18T04:57:19.497Z,18.71
2022-10-18T04:59:49.902Z,18.73
2022-10-18T05:02:19.248Z,18.72
2022-10-18T05:04:48.263Z,18.72
2022-10-18T05:07:17.567Z,18.67
2022-10-18T05:09:46.565Z,18.68
2022-10-18T05:12:15.915Z,18.69
2022-10-18T05:14:44.839Z,18.66
2022-10-18T05:17:15.562Z,18.66
2022-10-18T05:19:44.636Z,18.63
2022-10-18T05:22:13.896Z,18.65
2022-10-18T05:24:42.888Z,18.63
2022-10-18T05:27:12.133Z,18.64
2022-10-18T05:29:41.224Z,18.65
2022-10-18T05:32:10.522Z,18.64
2022-10-18T05:34:40.948Z,18.61
2022-10-18T05:37:10.193Z,18.62
2022-10-18T05:39:39.132Z,18.65
2022-10-18T05:42:08.878Z,18.61
2022-10-18T05:44:37.873Z,18.62
2022-10-18T05:47:07.163Z,18.64
2022-10-18T05:49:36.215Z,18.61
2022-10-18T05:52:07.056Z,18.62
2022-10-18T05:54:36.081Z,18.59
2022-10-18T05:57:05.387Z,18.58
2022-10-18T05:59:34.398Z,18.57
2022-10-18T06:02:03.635Z,18.57
2022-10-18T06:04:32.584Z,18.57
2022-10-18T06:07:01.815Z,18.55
2022-10-18T06:09:32.285Z,18.56
2022-10-18T06:12:01.674Z,18.57
2022-10-18T06:14:30.659Z,18.58
2022-10-18T06:16:59.927Z,18.57
2022-10-18T06:19:28.897Z,18.54
2022-10-18T06:21:58.133Z,18.56
2022-10-18T06:24:27.876Z,18.58
2022-10-18T06:26:58.600Z,18.57
2022-10-18T06:29:27.694Z,18.57
2022-10-18T06:31:56.950Z,18.58
2022-10-18T06:34:25.952Z,18.61
2022-10-18T06:36:56.706Z,18.58
2022-10-18T06:39:27.696Z,18.59
2022-10-18T06:41:58.320Z,18.61
2022-10-18T06:44:27.353Z,18.58
2022-10-18T06:46:56.584Z,18.62
2022-10-18T06:49:25.597Z,18.39
2022-10-18T06:51:57.497Z,18.45
2022-10-18T06:54:26.474Z,18.46
2022-10-18T06:56:58.896Z,18.56
2022-10-18T06:59:31.105Z,18.51
2022-10-18T07:02:00.883Z,18.30
2022-10-18T07:04:30.460Z,18.35
2022-10-18T07:07:03.162Z,18.47
2022-10-18T07:09:34.938Z,18.54
2022-10-18T07:15:59.397Z,18.54
2022-10-18T07:18:43.382Z,18.57
2022-10-18T07:21:13.252Z,18.68
2022-10-18T07:23:43.454Z,18.55
2022-10-18T07:26:13.322Z,18.54
2022-10-18T07:28:42.726Z,18.54
2022-10-18T07:31:11.925Z,18.57
2022-10-18T07:33:43.139Z,18.58
2022-10-18T07:36:12.387Z,18.65
2022-10-18T07:38:41.849Z,18.66
2022-10-18T07:41:12.364Z,18.68
2022-10-18T07:44:30.798Z,18.65
2022-10-18T07:46:59.911Z,18.68
2022-10-18T07:49:30.678Z,18.71
2022-10-18T07:51:59.968Z,18.73
2022-10-18T07:54:29.317Z,18.74
2022-10-18T07:56:58.541Z,18.75
2022-10-18T07:59:29.189Z,18.67
2022-10-18T08:01:58.270Z,18.69
2022-10-18T08:04:27.705Z,18.73
2022-10-18T08:06:58.363Z,18.67
2022-10-18T08:09:30.462Z,18.61
2022-10-18T08:11:59.515Z,18.47
2022-10-18T08:14:28.738Z,18.57
2022-10-18T08:16:57.753Z,18.61
2022-10-18T08:19:27.064Z,18.43
2022-10-18T08:21:56.159Z,18.46
2022-10-18T08:24:27.638Z,18.41
2022-10-18T08:26:57.035Z,18.18
2022-10-18T08:29:29.327Z,18.43
2022-10-18T08:32:00.762Z,18.59
2022-10-18T08:34:30.300Z,18.60
2022-10-18T08:36:59.521Z,18.66
2022-10-18T08:39:30.485Z,18.55
2022-10-18T08:42:17.067Z,18.54
2022-10-18T08:44:48.830Z,18.61
2022-10-18T08:47:18.802Z,18.64
2022-10-18T08:49:49.079Z,18.35
2022-10-18T08:52:18.789Z,18.42
2022-10-18T08:54:56.615Z,18.52
2022-10-18T08:57:25.802Z,18.67
2022-10-18T08:59:55.218Z,18.52
2022-10-18T09:02:29.103Z,18.41
2022-10-18T09:04:59.174Z,18.57
2022-10-18T09:07:41.187Z,18.65
2022-10-18T09:10:16.365Z,18.64
2022-10-18T09:12:51.060Z,18.41
2022-10-18T09:15:21.811Z,18.25
2022-10-18T09:17:55.538Z,18.32
2022-10-18T09:20:25.716Z,18.16
2022-10-18T09:22:56.244Z,18.27
2022-10-18T09:25:28.088Z,18.28
2022-10-18T09:27:57.762Z,18.33
2022-10-18T09:30:39.865Z,18.41
2022-10-18T09:33:16.871Z,18.22
2022-10-18T09:35:49.397Z,18.27
2022-10-18T09:38:19.518Z,18.36
2022-10-18T09:40:52.464Z,18.10
2022-10-18T09:43:22.673Z,18.10
2022-10-18T09:45:52.351Z,18.23
2022-10-18T09:48:23.884Z,18.26
2022-10-18T09:50:53.865Z,18.40
2022-10-18T09:53:23.884Z,18.64
2022-10-18T09:55:56.795Z,18.49
2022-10-18T09:58:25.887Z,18.50
2022-10-18T10:00:55.097Z,18.76
2022-10-18T10:03:24.093Z,18.80
2022-10-18T10:06:03.265Z,18.71
2022-10-18T10:08:35.692Z,18.62
2022-10-18T10:11:06.415Z,18.85
2022-10-18T10:13:35.461Z,18.85
2022-10-18T10:16:04.786Z,18.63
2022-10-18T10:18:35.008Z,18.75
2022-10-18T10:21:05.804Z,18.58
2022-10-18T10:23:37.064Z,18.51
2022-10-18T10:26:08.275Z,18.56
2022-10-18T10:28:38.513Z,18.58
2022-10-18T10:31:18.230Z,18.48
2022-10-18T10:33:47.655Z,18.62
2022-10-18T10:36:18.132Z,18.85
2022-10-18T10:38:47.082Z,18.97
2022-10-18T10:41:21.385Z,18.86
2022-10-18T10:43:50.477Z,18.80
2022-10-18T10:46:20.145Z,18.59
2022-10-18T10:48:50.031Z,18.70
2022-10-18T10:51:20.953Z,18.53
2022-10-18T10:53:52.228Z,18.55
2022-10-18T10:56:27.444Z,18.46
2022-10-18T10:58:56.859Z,18.72
2022-10-18T11:01:28.430Z,18.52
2022-10-18T11:03:58.227Z,18.56
2022-10-18T11:06:42.320Z,18.50
2022-10-18T11:09:32.370Z,18.46
2022-10-18T11:12:07.392Z,18.44
2022-10-18T11:14:37.882Z,18.51
2022-10-18T11:17:14.638Z,18.56
2022-10-18T11:19:46.360Z,18.47
2022-10-18T11:22:16.922Z,18.82
2022-10-18T11:24:46.136Z,18.97
2022-10-18T11:27:18.492Z,19.02
2022-10-18T11:29:54.328Z,18.87
2022-10-18T11:32:25.720Z,18.76
2022-10-18T11:34:58.281Z,18.68
2022-10-18T11:37:34.639Z,18.72
2022-10-18T11:40:10.089Z,18.72
2022-10-18T11:42:42.613Z,18.48
2022-10-18T11:45:15.266Z,18.49
2022-10-18T11:47:52.298Z,18.82
2022-10-18T11:50:26.779Z,18.88
2022-10-18T11:52:58.006Z,18.81
2022-10-18T11:55:41.782Z,18.84
2022-10-18T11:58:16.430Z,18.80
2022-10-18T12:00:49.227Z,18.84
2022-10-18T12:03:24.178Z,18.86
2022-10-18T12:05:53.374Z,18.86
2022-10-18T12:08:23.184Z,18.78
2022-10-18T12:11:04.735Z,18.84
2022-10-18T12:13:38.387Z,18.57
2022-10-18T12:16:07.953Z,18.75
2022-10-18T12:18:37.332Z,18.83
2022-10-18T12:21:06.460Z,18.88
2022-10-18T12:23:38.227Z,18.91
2022-10-18T12:26:08.365Z,18.78
2022-10-18T12:28:42.962Z,18.80
2022-10-18T12:31:14.931Z,18.79
2022-10-18T12:33:45.515Z,18.77
2022-10-18T12:36:18.038Z,18.58
2022-10-18T12:38:47.620Z,18.43
2022-10-18T12:41:18.397Z,18.63
2022-10-18T12:43:53.830Z,18.61
2022-10-18T12:46:22.850Z,18.59
2022-10-18T12:48:52.756Z,18.67
2022-10-18T12:51:22.224Z,18.33
2022-10-18T12:53:53.363Z,18.45
2022-10-18T12:56:42.171Z,18.48
2022-10-18T12:59:29.262Z,18.37
2022-10-18T13:02:16.793Z,18.56
2022-10-18T13:04:46.096Z,18.56
2022-10-18T13:07:34.796Z,18.55
2022-10-18T13:10:22.616Z,18.56
2022-10-18T13:12:54.641Z,18.59
2022-10-18T13:15:40.364Z,18.50
2022-10-18T13:18:16.127Z,18.49
2022-10-18T13:20:45.893Z,18.58
2022-10-18T13:25:52.897Z,18.46
2022-10-18T13:28:24.151Z,18.27
2022-10-18T13:30:54.452Z,18.51
2022-10-18T13:33:34.843Z,18.58
2022-10-18T13:36:05.523Z,18.58
2022-10-18T13:38:41.679Z,18.56
2022-10-18T13:41:12.018Z,18.56
2022-10-18T13:44:04.852Z,18.61
2022-10-18T13:46:52.789Z,18.62
2022-10-18T13:49:26.125Z,18.52
2022-10-18T13:51:57.336Z,18.43
2022-10-18T13:54:40.370Z,18.40
2022-10-18T13:57:15.154Z,18.41
2022-10-18T13:59:51.779Z,18.44
2022-10-18T14:02:50.950Z,18.42
2022-10-18T14:05:25.489Z,18.44
2022-10-18T14:07:58.218Z,18.36
2022-10-18T14:10:43.847Z,18.47
2022-10-18T14:13:18.606Z,18.45
2022-10-18T14:15:49.782Z,18.45
2022-10-18T14:18:22.532Z,18.40
2022-10-18T14:21:12.259Z,18.39
2022-10-18T14:23:43.493Z,18.34
2022-10-18T14:26:14.802Z,18.37
2022-10-18T14:29:00.472Z,18.35
2022-10-18T14:31:29.696Z,18.30
2022-10-18T14:33:59.202Z,18.31
2022-10-18T14:36:31.147Z,17.95
2022-10-18T14:39:00.852Z,18.06
2022-10-18T14:41:30.240Z,18.12
2022-10-18T14:44:13.279Z,18.10
2022-10-18T14:46:43.367Z,18.05
2022-10-18T14:49:12.908Z,18.14
2022-10-18T14:51:43.805Z,18.12
2022-10-18T14:56:48.901Z,18.12
2022-10-18T14:59:19.308Z,18.07
2022-10-18T15:01:55.767Z,17.93
2022-10-18T15:04:31.179Z,18.01
2022-10-18T15:07:02.105Z,17.93
2022-10-18T15:09:31.692Z,18.02
2022-10-18T15:12:00.822Z,18.04
2022-10-18T15:14:30.233Z,17.97
2022-10-18T15:17:00.851Z,17.90
2022-10-18T15:19:33.817Z,17.84
2022-10-18T15:22:31.237Z,17.89
2022-10-18T15:25:14.701Z,17.59
2022-10-18T15:27:45.326Z,17.35
2022-10-18T15:30:21.855Z,17.23
2022-10-18T15:32:51.613Z,16.85
2022-10-18T15:35:25.879Z,16.71
2022-10-18T15:37:57.419Z,17.13
2022-10-18T15:40:39.556Z,17.42
2022-10-18T15:43:23.330Z,17.41
2022-10-18T15:45:53.086Z,17.48
2022-10-18T15:48:33.309Z,17.36
2022-10-18T15:51:04.833Z,17.16
2022-10-18T15:53:45.701Z,17.23
2022-10-18T15:56:27.967Z,17.27
2022-10-18T15:58:58.119Z,17.30
2022-10-18T16:01:32.557Z,17.28
2022-10-18T16:04:01.682Z,17.27
2022-10-18T16:06:30.955Z,17.23
2022-10-18T16:09:01.328Z,16.98
2022-10-18T16:11:31.007Z,17.05
2022-10-18T16:14:00.652Z,16.96
2022-10-18T16:16:30.497Z,16.91
2022-10-18T16:18:59.477Z,17.02
2022-10-18T16:21:29.374Z,16.95
2022-10-18T16:23:58.465Z,16.60
2022-10-18T16:26:29.269Z,16.85
2022-10-18T16:28:58.475Z,16.91
2022-10-18T16:31:28.716Z,16.92
2022-10-18T16:33:58.110Z,16.71
2022-10-18T16:36:29.197Z,16.61
2022-10-18T16:38:59.074Z,16.70
2022-10-18T16:41:29.889Z,16.69
2022-10-18T16:43:58.912Z,16.64
2022-10-18T16:46:29.088Z,16.72
2022-10-18T16:48:58.267Z,16.70
2022-10-18T16:51:27.546Z,16.58
2022-10-18T16:53:56.624Z,16.56
2022-10-18T16:56:26.798Z,16.21
2022-10-18T16:59:17.800Z,16.13
2022-10-18T17:01:48.545Z,16.10
2022-10-18T17:04:17.596Z,16.00
2022-10-18T17:06:47.677Z,16.17
2022-10-18T17:09:16.945Z,15.94
2022-10-18T17:11:57.068Z,16.08
2022-10-18T17:14:36.542Z,16.22
2022-10-18T17:17:07.292Z,15.90
2022-10-18T17:19:36.273Z,15.91
2022-10-18T17:22:05.477Z,16.04
2022-10-18T17:24:34.673Z,16.06
2022-10-18T17:27:04.090Z,16.12
2022-10-18T17:29:33.163Z,16.16
2022-10-18T17:32:02.372Z,16.06
2022-10-18T17:34:32.788Z,15.94
2022-10-18T17:37:02.012Z,15.94
2022-10-18T17:39:31.140Z,15.89
2022-10-18T17:42:00.570Z,15.79
2022-10-18T17:44:29.582Z,15.96
2022-10-18T17:47:00.316Z,15.77
2022-10-18T17:49:29.416Z,15.60
2022-10-18T17:52:04.562Z,15.29
2022-10-18T17:54:36.112Z,15.60
2022-10-18T17:57:05.470Z,15.72
2022-10-18T17:59:34.456Z,15.66
2022-10-18T18:02:03.712Z,15.84
2022-10-18T18:04:32.692Z,15.88
2022-10-18T18:07:04.595Z,15.90
2022-10-18T18:09:33.567Z,15.89
2022-10-18T18:12:02.823Z,15.83
2022-10-18T18:14:34.629Z,15.62
2022-10-18T18:17:04.028Z,15.80
2022-10-18T18:19:33.241Z,15.14
2022-10-18T18:22:04.923Z,15.31
2022-10-18T18:24:33.926Z,15.23
2022-10-18T18:27:03.322Z,15.07
2022-10-18T18:29:32.618Z,15.19
2022-10-18T18:32:07.983Z,14.95
2022-10-18T18:34:40.848Z,14.99
2022-10-18T18:37:17.814Z,14.75
2022-10-18T18:39:52.159Z,14.72
2022-10-18T18:42:44.045Z,14.97
2022-10-18T18:45:13.402Z,14.95
2022-10-18T18:47:54.107Z,14.80
2022-10-18T18:50:50.171Z,15.10
2022-10-18T18:53:29.411Z,14.85
2022-10-18T19:03:43.159Z,15.27
2022-10-18T19:06:53.539Z,15.29
2022-10-18T19:09:37.995Z,15.30
2022-10-18T19:12:29.115Z,15.38
2022-10-18T19:15:12.154Z,15.28
2022-10-18T19:18:08.745Z,15.21
2022-10-18T19:20:57.402Z,15.21
2022-10-18T19:23:37.057Z,15.37
2022-10-18T19:26:21.228Z,15.40
2022-10-18T19:28:50.522Z,15.43
2022-10-18T19:31:20.042Z,15.45
2022-10-18T19:33:59.400Z,15.43
2022-10-18T19:36:29.634Z,15.41
2022-10-18T19:38:58.856Z,15.44
2022-10-18T19:41:29.946Z,15.44
2022-10-18T19:44:01.097Z,15.28
2022-10-18T19:46:30.401Z,15.31
2022-10-18T19:48:59.416Z,15.31
2022-10-18T19:51:28.750Z,15.25
2022-10-18T19:53:58.440Z,15.24
2022-10-18T19:56:29.785Z,15.00
2022-10-18T19:58:59.103Z,15.00
2022-10-18T20:01:30.305Z,15.09
2022-10-18T20:03:59.919Z,15.27
2022-10-18T20:06:32.544Z,15.06
2022-10-18T20:09:01.962Z,15.16
2022-10-18T20:11:37.465Z,15.32
2022-10-18T20:14:06.837Z,15.24
2022-10-18T20:16:38.738Z,15.12
2022-10-18T20:19:12.461Z,15.15
2022-10-18T20:21:44.313Z,15.18
2022-10-18T20:24:22.656Z,14.76
2022-10-18T20:26:53.958Z,14.97
2022-10-18T20:29:25.478Z,15.16
2022-10-18T20:31:55.866Z,15.31
2022-10-18T20:34:27.625Z,15.14
2022-10-18T20:36:57.020Z,14.90
2022-10-18T20:39:26.644Z,14.84
2022-10-18T20:41:59.627Z,15.17
2022-10-18T20:44:32.115Z,15.08
2022-10-18T20:47:03.740Z,15.19
2022-10-18T20:49:32.982Z,15.27
2022-10-18T20:52:05.198Z,15.27
2022-10-18T20:54:36.208Z,15.36
2022-10-18T20:57:07.372Z,14.94
2022-10-18T20:59:40.572Z,15.29
2022-10-18T21:02:13.452Z,15.28
2022-10-18T21:04:43.135Z,15.17
2022-10-18T21:07:13.515Z,15.19
2022-10-18T21:09:42.619Z,15.31
2022-10-18T21:12:15.040Z,15.04
2022-10-18T21:14:44.017Z,15.14
2022-10-18T21:17:13.381Z,15.07
2022-10-18T21:19:42.499Z,15.24
2022-10-18T21:22:11.770Z,15.20
2022-10-18T21:24:42.547Z,15.16
2022-10-18T21:27:11.879Z,15.01
2022-10-18T21:29:42.274Z,15.14
2022-10-18T21:32:14.313Z,15.37
2022-10-18T21:34:43.364Z,15.29
2022-10-18T21:37:12.620Z,15.05
2022-10-18T21:39:42.356Z,14.90
2022-10-18T21:42:12.453Z,14.88
2022-10-18T21:44:42.938Z,14.98
2022-10-18T21:47:12.255Z,14.95
2022-10-18T21:49:41.391Z,15.05
2022-10-18T21:52:10.678Z,15.24
2022-10-18T21:54:39.864Z,15.00
2022-10-18T21:57:09.141Z,15.20
2022-10-18T21:59:38.136Z,15.10
2022-10-18T22:02:08.746Z,15.06
2022-10-18T22:04:37.706Z,15.08
2022-10-18T22:07:06.846Z,15.17
2022-10-18T22:09:35.758Z,15.32
2022-10-18T22:12:05.043Z,15.37
2022-10-18T22:14:33.974Z,15.29
2022-10-18T22:17:03.121Z,15.36
2022-10-18T22:19:33.536Z,15.37
2022-10-18T22:22:02.720Z,15.29
2022-10-18T22:24:31.725Z,15.32
2022-10-18T22:27:00.963Z,15.36
2022-10-18T22:29:29.851Z,15.34
2022-10-18T22:31:59.018Z,15.43
2022-10-18T22:34:28.583Z,15.31
2022-10-18T22:36:59.561Z,15.40
2022-10-18T22:39:28.442Z,15.39
2022-10-18T22:41:57.583Z,15.31
2022-10-18T22:44:26.758Z,15.34
2022-10-18T22:46:56.009Z,15.34
2022-10-18T22:49:24.871Z,15.30
2022-10-18T22:51:54.032Z,15.30
2022-10-18T22:54:24.315Z,15.33
2022-10-18T22:56:53.519Z,15.31
2022-10-18T22:59:22.418Z,15.30
2022-10-18T23:01:51.570Z,15.18
2022-10-18T23:04:20.523Z,14.58
2022-10-18T23:06:49.695Z,14.98
2022-10-18T23:09:18.590Z,14.64
2022-10-18T23:11:50.974Z,14.93
2022-10-18T23:14:19.967Z,14.90
2022-10-18T23:16:49.204Z,14.89
2022-10-18T23:19:18.187Z,14.49
2022-10-18T23:21:47.360Z,14.81
2022-10-18T23:24:16.286Z,14.33
2022-10-18T23:26:45.385Z,14.90
2022-10-18T23:29:15.795Z,15.10
2022-10-18T23:31:44.926Z,15.08
2022-10-18T23:34:13.836Z,15.00
2022-10-18T23:39:16.897Z,14.49
2022-10-18T23:41:46.166Z,14.70
2022-10-18T23:44:16.568Z,14.51
2022-10-18T23:46:45.784Z,14.48
2022-10-18T23:49:15.035Z,14.38
2022-10-18T23:51:44.284Z,14.61
2022-10-18T23:54:13.213Z,14.73
2022-10-18T23:56:42.391Z,14.71
2022-10-18T23:59:11.340Z,14.61
